sensor_id;sensor_type;location;lat;lon;timestamp;P1;durP1;ratioP1;P2;durP2;ratioP2
21354;SDS011;10835;50.148;19.760;2022-12-07T00:01:28;6.40;;;4.03;;
21354;SDS011;10835;50.148;19.760;2022-12-07T00:03:57;6.03;;;3.75;;
21354;SDS011;10835;50.148;19.760;2022-12-07T00:06:32;7.47;;;3.85;;
21354;SDS011;10835;50.148;19.760;2022-12-07T00:09:02;5.22;;;3.85;;
21354;SDS011;10835;50.148;19.760;2022-12-07T00:11:31;6.82;;;3.67;;
21354;SDS011;10835;50.148;19.760;2022-12-07T00:14:01;8.93;;;3.95;;
21354;SDS011;10835;50.148;19.760;2022-12-07T00:16:31;8.90;;;4.32;;
21354;SDS011;10835;50.148;19.760;2022-12-07T00:19:01;11.13;;;4.90;;
21354;SDS011;10835;50.148;19.760;2022-12-07T00:21:30;8.70;;;4.45;;
21354;SDS011;10835;50.148;19.760;2022-12-07T00:24:00;7.80;;;3.25;;
21354;SDS011;10835;50.148;19.760;2022-12-07T00:26:29;7.43;;;3.95;;
21354;SDS011;10835;50.148;19.760;2022-12-07T00:29:00;5.57;;;3.13;;
21354;SDS011;10835;50.148;19.760;2022-12-07T00:31:31;6.38;;;3.10;;
21354;SDS011;10835;50.148;19.760;2022-12-07T00:34:01;5.38;;;3.10;;
21354;SDS011;10835;50.148;19.760;2022-12-07T00:36:29;6.50;;;3.53;;
21354;SDS011;10835;50.148;19.760;2022-12-07T00:38:58;6.13;;;3.35;;
21354;SDS011;10835;50.148;19.760;2022-12-07T00:41:28;6.90;;;3.72;;
21354;SDS011;10835;50.148;19.760;2022-12-07T00:43:57;6.60;;;3.78;;
21354;SDS011;10835;50.148;19.760;2022-12-07T00:46:25;7.43;;;3.70;;
21354;SDS011;10835;50.148;19.760;2022-12-07T00:48:54;5.93;;;3.22;;
21354;SDS011;10835;50.148;19.760;2022-12-07T00:51:23;5.25;;;3.58;;
21354;SDS011;10835;50.148;19.760;2022-12-07T00:53:52;5.70;;;2.67;;
21354;SDS011;10835;50.148;19.760;2022-12-07T00:56:21;4.70;;;2.97;;
21354;SDS011;10835;50.148;19.760;2022-12-07T00:58:52;5.00;;;1.88;;
21354;SDS011;10835;50.148;19.760;2022-12-07T01:01:22;6.78;;;3.50;;
21354;SDS011;10835;50.148;19.760;2022-12-07T01:03:51;4.88;;;2.88;;
21354;SDS011;10835;50.148;19.760;2022-12-07T01:06:22;5.65;;;3.00;;
21354;SDS011;10835;50.148;19.760;2022-12-07T01:08:51;4.75;;;2.28;;
21354;SDS011;10835;50.148;19.760;2022-12-07T01:11:20;6.35;;;3.15;;
21354;SDS011;10835;50.148;19.760;2022-12-07T01:13:49;6.68;;;3.67;;
21354;SDS011;10835;50.148;19.760;2022-12-07T01:16:20;5.35;;;3.42;;
21354;SDS011;10835;50.148;19.760;2022-12-07T01:18:50;5.43;;;3.20;;
21354;SDS011;10835;50.148;19.760;2022-12-07T01:21:19;5.93;;;2.90;;
21354;SDS011;10835;50.148;19.760;2022-12-07T01:23:49;5.55;;;2.58;;
21354;SDS011;10835;50.148;19.760;2022-12-07T01:26:19;6.15;;;2.65;;
21354;SDS011;10835;50.148;19.760;2022-12-07T01:28:49;8.27;;;3.22;;
21354;SDS011;10835;50.148;19.760;2022-12-07T01:31:19;3.70;;;2.47;;
21354;SDS011;10835;50.148;19.760;2022-12-07T01:33:49;4.65;;;2.58;;
21354;SDS011;10835;50.148;19.760;2022-12-07T01:36:19;5.63;;;2.70;;
21354;SDS011;10835;50.148;19.760;2022-12-07T01:38:49;8.80;;;2.88;;
21354;SDS011;10835;50.148;19.760;2022-12-07T01:41:20;4.63;;;2.58;;
21354;SDS011;10835;50.148;19.760;2022-12-07T01:44:08;4.20;;;2.78;;
21354;SDS011;10835;50.148;19.760;2022-12-07T01:46:46;6.13;;;2.50;;
21354;SDS011;10835;50.148;19.760;2022-12-07T01:49:21;4.70;;;2.38;;
21354;SDS011;10835;50.148;19.760;2022-12-07T01:51:54;4.63;;;2.63;;
21354;SDS011;10835;50.148;19.760;2022-12-07T01:54:27;4.30;;;3.15;;
21354;SDS011;10835;50.148;19.760;2022-12-07T01:56:55;4.07;;;2.67;;
21354;SDS011;10835;50.148;19.760;2022-12-07T01:59:25;5.93;;;3.55;;
21354;SDS011;10835;50.148;19.760;2022-12-07T02:01:55;5.28;;;3.28;;
21354;SDS011;10835;50.148;19.760;2022-12-07T02:04:24;9.80;;;3.95;;
21354;SDS011;10835;50.148;19.760;2022-12-07T02:06:52;5.15;;;3.20;;
21354;SDS011;10835;50.148;19.760;2022-12-07T02:09:21;8.48;;;3.53;;
21354;SDS011;10835;50.148;19.760;2022-12-07T02:11:49;5.90;;;3.17;;
21354;SDS011;10835;50.148;19.760;2022-12-07T02:14:18;6.22;;;3.60;;
21354;SDS011;10835;50.148;19.760;2022-12-07T02:16:47;5.10;;;3.03;;
21354;SDS011;10835;50.148;19.760;2022-12-07T02:25:30;6.50;;;3.30;;
21354;SDS011;10835;50.148;19.760;2022-12-07T02:28:12;7.53;;;3.22;;
21354;SDS011;10835;50.148;19.760;2022-12-07T02:30:50;5.45;;;3.45;;
21354;SDS011;10835;50.148;19.760;2022-12-07T02:33:23;3.70;;;2.65;;
21354;SDS011;10835;50.148;19.760;2022-12-07T02:35:56;4.28;;;2.85;;
21354;SDS011;10835;50.148;19.760;2022-12-07T02:38:29;5.72;;;3.17;;
21354;SDS011;10835;50.148;19.760;2022-12-07T02:41:03;6.63;;;3.10;;
21354;SDS011;10835;50.148;19.760;2022-12-07T02:43:34;4.38;;;2.83;;
21354;SDS011;10835;50.148;19.760;2022-12-07T02:46:08;4.32;;;2.78;;
21354;SDS011;10835;50.148;19.760;2022-12-07T02:48:38;4.40;;;3.10;;
21354;SDS011;10835;50.148;19.760;2022-12-07T02:51:08;3.90;;;2.33;;
21354;SDS011;10835;50.148;19.760;2022-12-07T02:53:37;4.85;;;2.72;;
21354;SDS011;10835;50.148;19.760;2022-12-07T02:56:08;5.78;;;3.45;;
21354;SDS011;10835;50.148;19.760;2022-12-07T02:58:50;3.72;;;2.25;;
21354;SDS011;10835;50.148;19.760;2022-12-07T03:01:33;4.82;;;2.72;;
21354;SDS011;10835;50.148;19.760;2022-12-07T03:04:10;3.65;;;2.38;;
21354;SDS011;10835;50.148;19.760;2022-12-07T03:06:48;7.55;;;2.80;;
21354;SDS011;10835;50.148;19.760;2022-12-07T03:09:20;4.32;;;2.67;;
21354;SDS011;10835;50.148;19.760;2022-12-07T03:11:55;4.65;;;2.97;;
21354;SDS011;10835;50.148;19.760;2022-12-07T03:14:32;6.13;;;2.45;;
21354;SDS011;10835;50.148;19.760;2022-12-07T03:17:09;4.95;;;2.70;;
21354;SDS011;10835;50.148;19.760;2022-12-07T03:19:40;4.85;;;2.67;;
21354;SDS011;10835;50.148;19.760;2022-12-07T03:22:10;4.55;;;2.50;;
21354;SDS011;10835;50.148;19.760;2022-12-07T03:24:42;4.13;;;2.75;;
21354;SDS011;10835;50.148;19.760;2022-12-07T03:27:15;6.65;;;2.85;;
21354;SDS011;10835;50.148;19.760;2022-12-07T03:29:46;3.63;;;2.53;;
21354;SDS011;10835;50.148;19.760;2022-12-07T03:32:20;5.68;;;3.08;;
21354;SDS011;10835;50.148;19.760;2022-12-07T03:34:53;3.58;;;2.55;;
21354;SDS011;10835;50.148;19.760;2022-12-07T03:37:29;3.63;;;2.30;;
21354;SDS011;10835;50.148;19.760;2022-12-07T03:40:02;4.50;;;2.92;;
21354;SDS011;10835;50.148;19.760;2022-12-07T03:42:34;4.90;;;2.40;;
21354;SDS011;10835;50.148;19.760;2022-12-07T03:45:02;5.03;;;2.58;;
21354;SDS011;10835;50.148;19.760;2022-12-07T03:47:34;4.22;;;2.65;;
21354;SDS011;10835;50.148;19.760;2022-12-07T03:50:11;4.95;;;2.63;;
21354;SDS011;10835;50.148;19.760;2022-12-07T03:52:45;8.50;;;3.10;;
21354;SDS011;10835;50.148;19.760;2022-12-07T03:55:21;4.40;;;2.72;;
21354;SDS011;10835;50.148;19.760;2022-12-07T03:57:55;4.15;;;2.67;;
21354;SDS011;10835;50.148;19.760;2022-12-07T04:00:25;6.50;;;3.30;;
21354;SDS011;10835;50.148;19.760;2022-12-07T04:02:55;7.00;;;3.55;;
21354;SDS011;10835;50.148;19.760;2022-12-07T04:05:23;5.68;;;2.90;;
21354;SDS011;10835;50.148;19.760;2022-12-07T04:07:52;5.85;;;3.58;;
21354;SDS011;10835;50.148;19.760;2022-12-07T04:10:20;5.15;;;3.08;;
21354;SDS011;10835;50.148;19.760;2022-12-07T04:12:48;6.03;;;3.85;;
21354;SDS011;10835;50.148;19.760;2022-12-07T04:15:16;6.82;;;4.00;;
21354;SDS011;10835;50.148;19.760;2022-12-07T04:17:44;8.77;;;3.45;;
21354;SDS011;10835;50.148;19.760;2022-12-07T04:20:13;5.53;;;3.53;;
21354;SDS011;10835;50.148;19.760;2022-12-07T04:22:41;5.63;;;3.35;;
21354;SDS011;10835;50.148;19.760;2022-12-07T04:25:10;8.60;;;3.80;;
21354;SDS011;10835;50.148;19.760;2022-12-07T04:27:38;6.70;;;3.63;;
21354;SDS011;10835;50.148;19.760;2022-12-07T04:30:06;5.10;;;3.17;;
21354;SDS011;10835;50.148;19.760;2022-12-07T04:32:35;5.88;;;3.55;;
21354;SDS011;10835;50.148;19.760;2022-12-07T04:35:03;6.57;;;3.40;;
21354;SDS011;10835;50.148;19.760;2022-12-07T04:37:33;5.97;;;3.20;;
21354;SDS011;10835;50.148;19.760;2022-12-07T04:40:01;5.40;;;3.13;;
21354;SDS011;10835;50.148;19.760;2022-12-07T04:42:30;5.07;;;3.35;;
21354;SDS011;10835;50.148;19.760;2022-12-07T04:44:58;6.20;;;3.28;;
21354;SDS011;10835;50.148;19.760;2022-12-07T04:47:26;8.98;;;4.00;;
21354;SDS011;10835;50.148;19.760;2022-12-07T04:49:54;7.40;;;3.90;;
21354;SDS011;10835;50.148;19.760;2022-12-07T04:52:23;6.45;;;3.42;;
21354;SDS011;10835;50.148;19.760;2022-12-07T04:54:52;7.68;;;3.25;;
21354;SDS011;10835;50.148;19.760;2022-12-07T04:57:20;7.28;;;3.85;;
21354;SDS011;10835;50.148;19.760;2022-12-07T04:59:48;6.53;;;3.88;;
21354;SDS011;10835;50.148;19.760;2022-12-07T05:02:16;5.72;;;3.58;;
21354;SDS011;10835;50.148;19.760;2022-12-07T05:04:44;10.20;;;5.65;;
21354;SDS011;10835;50.148;19.760;2022-12-07T05:07:12;6.78;;;4.25;;
21354;SDS011;10835;50.148;19.760;2022-12-07T05:09:40;6.85;;;4.07;;
21354;SDS011;10835;50.148;19.760;2022-12-07T05:12:10;6.65;;;4.28;;
21354;SDS011;10835;50.148;19.760;2022-12-07T05:14:38;9.60;;;4.20;;
21354;SDS011;10835;50.148;19.760;2022-12-07T05:17:06;8.88;;;5.47;;
21354;SDS011;10835;50.148;19.760;2022-12-07T05:19:35;9.50;;;4.75;;
21354;SDS011;10835;50.148;19.760;2022-12-07T05:22:03;8.48;;;5.25;;
21354;SDS011;10835;50.148;19.760;2022-12-07T05:24:31;12.68;;;6.13;;
21354;SDS011;10835;50.148;19.760;2022-12-07T05:26:59;9.23;;;5.63;;
21354;SDS011;10835;50.148;19.760;2022-12-07T05:29:28;9.70;;;4.80;;
21354;SDS011;10835;50.148;19.760;2022-12-07T05:31:56;9.20;;;5.22;;
21354;SDS011;10835;50.148;19.760;2022-12-07T05:34:27;11.55;;;5.28;;
21354;SDS011;10835;50.148;19.760;2022-12-07T05:36:55;9.82;;;5.55;;
21354;SDS011;10835;50.148;19.760;2022-12-07T05:39:23;10.52;;;4.68;;
21354;SDS011;10835;50.148;19.760;2022-12-07T05:41:51;9.07;;;5.13;;
21354;SDS011;10835;50.148;19.760;2022-12-07T05:44:38;10.27;;;5.32;;
21354;SDS011;10835;50.148;19.760;2022-12-07T05:47:06;11.13;;;5.45;;
21354;SDS011;10835;50.148;19.760;2022-12-07T05:49:34;10.93;;;5.78;;
21354;SDS011;10835;50.148;19.760;2022-12-07T05:52:02;11.93;;;5.55;;
21354;SDS011;10835;50.148;19.760;2022-12-07T05:54:30;11.15;;;5.45;;
21354;SDS011;10835;50.148;19.760;2022-12-07T05:56:58;10.82;;;6.10;;
21354;SDS011;10835;50.148;19.760;2022-12-07T05:59:26;12.75;;;6.25;;
21354;SDS011;10835;50.148;19.760;2022-12-07T06:01:56;12.10;;;6.65;;
21354;SDS011;10835;50.148;19.760;2022-12-07T06:04:26;11.43;;;5.88;;
21354;SDS011;10835;50.148;19.760;2022-12-07T06:06:55;10.48;;;6.55;;
21354;SDS011;10835;50.148;19.760;2022-12-07T06:09:24;12.85;;;6.03;;
21354;SDS011;10835;50.148;19.760;2022-12-07T06:11:53;13.32;;;6.38;;
21354;SDS011;10835;50.148;19.760;2022-12-07T06:14:39;10.48;;;5.20;;
21354;SDS011;10835;50.148;19.760;2022-12-07T06:17:08;13.20;;;6.30;;
21354;SDS011;10835;50.148;19.760;2022-12-07T06:19:37;9.60;;;5.15;;
21354;SDS011;10835;50.148;19.760;2022-12-07T06:22:05;10.93;;;5.53;;
21354;SDS011;10835;50.148;19.760;2022-12-07T06:24:35;11.90;;;5.13;;
21354;SDS011;10835;50.148;19.760;2022-12-07T06:27:03;9.10;;;4.28;;
21354;SDS011;10835;50.148;19.760;2022-12-07T06:29:33;8.55;;;4.65;;
21354;SDS011;10835;50.148;19.760;2022-12-07T06:32:01;5.95;;;4.03;;
21354;SDS011;10835;50.148;19.760;2022-12-07T06:34:30;7.75;;;4.20;;
21354;SDS011;10835;50.148;19.760;2022-12-07T06:36:58;9.23;;;5.68;;
21354;SDS011;10835;50.148;19.760;2022-12-07T06:39:27;10.68;;;4.97;;
21354;SDS011;10835;50.148;19.760;2022-12-07T06:41:55;9.30;;;4.57;;
21354;SDS011;10835;50.148;19.760;2022-12-07T06:44:24;6.18;;;3.53;;
21354;SDS011;10835;50.148;19.760;2022-12-07T06:46:52;4.85;;;3.33;;
21354;SDS011;10835;50.148;19.760;2022-12-07T06:49:41;6.40;;;3.55;;
21354;SDS011;10835;50.148;19.760;2022-12-07T06:52:09;12.05;;;4.68;;
21354;SDS011;10835;50.148;19.760;2022-12-07T06:54:37;9.70;;;4.75;;
21354;SDS011;10835;50.148;19.760;2022-12-07T06:57:05;9.07;;;4.70;;
21354;SDS011;10835;50.148;19.760;2022-12-07T06:59:33;8.50;;;4.03;;
21354;SDS011;10835;50.148;19.760;2022-12-07T07:02:01;9.32;;;5.28;;
21354;SDS011;10835;50.148;19.760;2022-12-07T07:04:29;7.57;;;4.43;;
21354;SDS011;10835;50.148;19.760;2022-12-07T07:06:59;11.10;;;5.70;;
21354;SDS011;10835;50.148;19.760;2022-12-07T07:09:27;8.85;;;4.85;;
21354;SDS011;10835;50.148;19.760;2022-12-07T07:11:55;14.88;;;5.05;;
21354;SDS011;10835;50.148;19.760;2022-12-07T07:14:23;8.85;;;4.32;;
21354;SDS011;10835;50.148;19.760;2022-12-07T07:16:51;8.85;;;5.22;;
21354;SDS011;10835;50.148;19.760;2022-12-07T07:19:19;7.63;;;4.70;;
21354;SDS011;10835;50.148;19.760;2022-12-07T07:21:47;11.60;;;5.45;;
21354;SDS011;10835;50.148;19.760;2022-12-07T07:24:17;7.05;;;3.38;;
21354;SDS011;10835;50.148;19.760;2022-12-07T07:26:45;8.60;;;4.40;;
21354;SDS011;10835;50.148;19.760;2022-12-07T07:29:13;7.85;;;4.22;;
21354;SDS011;10835;50.148;19.760;2022-12-07T07:31:41;6.80;;;3.85;;
21354;SDS011;10835;50.148;19.760;2022-12-07T07:34:09;6.10;;;3.50;;
21354;SDS011;10835;50.148;19.760;2022-12-07T07:36:37;10.05;;;5.72;;
21354;SDS011;10835;50.148;19.760;2022-12-07T07:39:05;10.50;;;5.32;;
21354;SDS011;10835;50.148;19.760;2022-12-07T07:41:34;9.23;;;5.13;;
21354;SDS011;10835;50.148;19.760;2022-12-07T07:44:03;9.25;;;4.53;;
21354;SDS011;10835;50.148;19.760;2022-12-07T07:46:31;12.25;;;6.13;;
21354;SDS011;10835;50.148;19.760;2022-12-07T07:49:01;6.82;;;4.47;;
21354;SDS011;10835;50.148;19.760;2022-12-07T07:51:29;9.18;;;4.03;;
21354;SDS011;10835;50.148;19.760;2022-12-07T07:53:57;11.43;;;4.45;;
21354;SDS011;10835;50.148;19.760;2022-12-07T07:56:25;9.68;;;5.55;;
21354;SDS011;10835;50.148;19.760;2022-12-07T07:58:54;13.38;;;5.25;;
21354;SDS011;10835;50.148;19.760;2022-12-07T08:01:22;10.00;;;4.38;;
21354;SDS011;10835;50.148;19.760;2022-12-07T08:03:51;5.70;;;3.55;;
21354;SDS011;10835;50.148;19.760;2022-12-07T08:06:19;6.95;;;3.30;;
21354;SDS011;10835;50.148;19.760;2022-12-07T08:08:55;8.93;;;5.68;;
21354;SDS011;10835;50.148;19.760;2022-12-07T08:11:24;10.35;;;4.97;;
21354;SDS011;10835;50.148;19.760;2022-12-07T08:13:52;9.05;;;2.72;;
21354;SDS011;10835;50.148;19.760;2022-12-07T08:16:21;7.53;;;4.07;;
21354;SDS011;10835;50.148;19.760;2022-12-07T08:18:50;6.50;;;3.97;;
21354;SDS011;10835;50.148;19.760;2022-12-07T08:21:18;3.88;;;2.75;;
21354;SDS011;10835;50.148;19.760;2022-12-07T08:23:45;7.43;;;3.22;;
21354;SDS011;10835;50.148;19.760;2022-12-07T08:26:14;7.25;;;3.55;;
21354;SDS011;10835;50.148;19.760;2022-12-07T08:28:45;3.00;;;2.08;;
21354;SDS011;10835;50.148;19.760;2022-12-07T08:31:14;7.53;;;4.07;;
21354;SDS011;10835;50.148;19.760;2022-12-07T08:33:45;8.13;;;5.07;;
21354;SDS011;10835;50.148;19.760;2022-12-07T08:36:14;8.85;;;5.30;;
21354;SDS011;10835;50.148;19.760;2022-12-07T08:38:44;3.88;;;2.63;;
21354;SDS011;10835;50.148;19.760;2022-12-07T08:41:33;5.95;;;3.42;;
21354;SDS011;10835;50.148;19.760;2022-12-07T08:44:01;9.10;;;5.65;;
21354;SDS011;10835;50.148;19.760;2022-12-07T08:46:30;7.35;;;4.47;;
21354;SDS011;10835;50.148;19.760;2022-12-07T08:49:06;5.25;;;3.40;;
21354;SDS011;10835;50.148;19.760;2022-12-07T08:51:38;4.65;;;2.80;;
21354;SDS011;10835;50.148;19.760;2022-12-07T08:54:07;3.88;;;3.25;;
21354;SDS011;10835;50.148;19.760;2022-12-07T08:56:38;8.02;;;5.00;;
21354;SDS011;10835;50.148;19.760;2022-12-07T08:59:06;6.57;;;4.38;;
21354;SDS011;10835;50.148;19.760;2022-12-07T09:01:35;9.07;;;4.85;;
21354;SDS011;10835;50.148;19.760;2022-12-07T09:04:03;3.00;;;2.33;;
21354;SDS011;10835;50.148;19.760;2022-12-07T09:06:32;5.93;;;3.47;;
21354;SDS011;10835;50.148;19.760;2022-12-07T09:09:01;10.73;;;5.30;;
21354;SDS011;10835;50.148;19.760;2022-12-07T09:11:30;5.18;;;3.20;;
21354;SDS011;10835;50.148;19.760;2022-12-07T09:13:58;5.07;;;3.28;;
21354;SDS011;10835;50.148;19.760;2022-12-07T09:16:26;6.93;;;3.92;;
21354;SDS011;10835;50.148;19.760;2022-12-07T09:18:56;7.65;;;3.47;;
21354;SDS011;10835;50.148;19.760;2022-12-07T09:21:24;6.25;;;3.80;;
21354;SDS011;10835;50.148;19.760;2022-12-07T09:23:53;4.82;;;3.58;;
21354;SDS011;10835;50.148;19.760;2022-12-07T09:26:21;4.10;;;2.55;;
21354;SDS011;10835;50.148;19.760;2022-12-07T09:28:49;7.15;;;4.03;;
21354;SDS011;10835;50.148;19.760;2022-12-07T09:31:17;4.07;;;3.10;;
21354;SDS011;10835;50.148;19.760;2022-12-07T09:33:52;3.10;;;2.13;;
21354;SDS011;10835;50.148;19.760;2022-12-07T09:36:21;4.82;;;3.50;;
21354;SDS011;10835;50.148;19.760;2022-12-07T09:38:49;7.10;;;4.05;;
21354;SDS011;10835;50.148;19.760;2022-12-07T09:41:19;5.28;;;3.08;;
21354;SDS011;10835;50.148;19.760;2022-12-07T09:43:48;5.05;;;3.47;;
21354;SDS011;10835;50.148;19.760;2022-12-07T09:46:17;9.07;;;3.72;;
21354;SDS011;10835;50.148;19.760;2022-12-07T09:48:48;6.03;;;3.13;;
21354;SDS011;10835;50.148;19.760;2022-12-07T09:51:18;7.80;;;3.95;;
21354;SDS011;10835;50.148;19.760;2022-12-07T09:53:51;9.30;;;4.88;;
21354;SDS011;10835;50.148;19.760;2022-12-07T09:56:21;5.68;;;3.75;;
21354;SDS011;10835;50.148;19.760;2022-12-07T09:58:51;3.15;;;2.08;;
21354;SDS011;10835;50.148;19.760;2022-12-07T10:01:27;5.65;;;3.75;;
21354;SDS011;10835;50.148;19.760;2022-12-07T10:03:59;7.40;;;4.45;;
21354;SDS011;10835;50.148;19.760;2022-12-07T10:06:34;6.97;;;4.22;;
21354;SDS011;10835;50.148;19.760;2022-12-07T10:09:02;9.00;;;4.07;;
21354;SDS011;10835;50.148;19.760;2022-12-07T10:14:27;5.15;;;3.55;;
21354;SDS011;10835;50.148;19.760;2022-12-07T10:20:18;7.93;;;3.97;;
21354;SDS011;10835;50.148;19.760;2022-12-07T10:22:53;6.40;;;3.22;;
21354;SDS011;10835;50.148;19.760;2022-12-07T10:25:27;4.35;;;3.00;;
21354;SDS011;10835;50.148;19.760;2022-12-07T10:28:03;4.85;;;3.45;;
21354;SDS011;10835;50.148;19.760;2022-12-07T10:30:46;8.38;;;4.70;;
21354;SDS011;10835;50.148;19.760;2022-12-07T10:33:27;6.30;;;3.85;;
21354;SDS011;10835;50.148;19.760;2022-12-07T10:35:57;8.60;;;4.53;;
21354;SDS011;10835;50.148;19.760;2022-12-07T10:38:26;8.68;;;5.28;;
21354;SDS011;10835;50.148;19.760;2022-12-07T10:41:03;10.43;;;4.55;;
21354;SDS011;10835;50.148;19.760;2022-12-07T10:43:34;7.90;;;3.75;;
21354;SDS011;10835;50.148;19.760;2022-12-07T10:48:59;5.65;;;3.83;;
21354;SDS011;10835;50.148;19.760;2022-12-07T10:51:34;8.80;;;5.55;;
21354;SDS011;10835;50.148;19.760;2022-12-07T10:54:10;7.45;;;3.83;;
21354;SDS011;10835;50.148;19.760;2022-12-07T10:56:48;6.57;;;3.72;;
21354;SDS011;10835;50.148;19.760;2022-12-07T10:59:35;8.40;;;4.15;;
21354;SDS011;10835;50.148;19.760;2022-12-07T11:02:15;6.72;;;3.58;;
21354;SDS011;10835;50.148;19.760;2022-12-07T11:04:54;7.57;;;4.10;;
21354;SDS011;10835;50.148;19.760;2022-12-07T11:07:33;11.32;;;5.47;;
21354;SDS011;10835;50.148;19.760;2022-12-07T11:10:11;7.68;;;3.63;;
21354;SDS011;10835;50.148;19.760;2022-12-07T11:13:08;6.50;;;4.18;;
21354;SDS011;10835;50.148;19.760;2022-12-07T11:18:45;4.28;;;2.95;;
21354;SDS011;10835;50.148;19.760;2022-12-07T11:21:20;5.95;;;3.40;;
21354;SDS011;10835;50.148;19.760;2022-12-07T11:23:56;5.47;;;3.03;;
21354;SDS011;10835;50.148;19.760;2022-12-07T11:26:34;9.02;;;2.75;;
21354;SDS011;10835;50.148;19.760;2022-12-07T11:29:27;6.05;;;4.05;;
21354;SDS011;10835;50.148;19.760;2022-12-07T11:32:22;4.72;;;3.03;;
21354;SDS011;10835;50.148;19.760;2022-12-07T11:35:04;4.63;;;3.47;;
21354;SDS011;10835;50.148;19.760;2022-12-07T11:37:36;6.57;;;3.88;;
21354;SDS011;10835;50.148;19.760;2022-12-07T11:40:13;7.05;;;4.55;;
21354;SDS011;10835;50.148;19.760;2022-12-07T11:42:49;2.30;;;1.42;;
21354;SDS011;10835;50.148;19.760;2022-12-07T11:45:22;5.68;;;3.30;;
21354;SDS011;10835;50.148;19.760;2022-12-07T11:47:55;7.70;;;4.68;;
21354;SDS011;10835;50.148;19.760;2022-12-07T11:50:27;8.85;;;5.63;;
21354;SDS011;10835;50.148;19.760;2022-12-07T11:53:01;4.63;;;3.50;;
21354;SDS011;10835;50.148;19.760;2022-12-07T11:55:40;7.43;;;3.75;;
21354;SDS011;10835;50.148;19.760;2022-12-07T11:58:15;4.63;;;3.38;;
21354;SDS011;10835;50.148;19.760;2022-12-07T12:00:50;5.22;;;3.35;;
21354;SDS011;10835;50.148;19.760;2022-12-07T12:03:25;4.78;;;3.40;;
21354;SDS011;10835;50.148;19.760;2022-12-07T12:05:59;5.13;;;3.00;;
21354;SDS011;10835;50.148;19.760;2022-12-07T12:08:29;7.10;;;3.63;;
21354;SDS011;10835;50.148;19.760;2022-12-07T12:11:29;6.45;;;2.97;;
21354;SDS011;10835;50.148;19.760;2022-12-07T12:14:22;5.10;;;3.03;;
21354;SDS011;10835;50.148;19.760;2022-12-07T12:17:10;7.30;;;3.90;;
21354;SDS011;10835;50.148;19.760;2022-12-07T12:20:02;5.28;;;3.13;;
21354;SDS011;10835;50.148;19.760;2022-12-07T12:22:35;5.38;;;3.28;;
21354;SDS011;10835;50.148;19.760;2022-12-07T12:25:12;7.28;;;3.13;;
21354;SDS011;10835;50.148;19.760;2022-12-07T12:27:47;2.28;;;1.77;;
21354;SDS011;10835;50.148;19.760;2022-12-07T12:30:31;5.60;;;3.50;;
21354;SDS011;10835;50.148;19.760;2022-12-07T12:33:05;4.97;;;3.30;;
21354;SDS011;10835;50.148;19.760;2022-12-07T12:35:42;3.10;;;2.05;;
21354;SDS011;10835;50.148;19.760;2022-12-07T12:44:38;3.45;;;2.22;;
21354;SDS011;10835;50.148;19.760;2022-12-07T12:47:41;2.40;;;1.85;;
21354;SDS011;10835;50.148;19.760;2022-12-07T12:50:19;3.53;;;2.38;;
21354;SDS011;10835;50.148;19.760;2022-12-07T12:52:54;3.30;;;2.25;;
21354;SDS011;10835;50.148;19.760;2022-12-07T12:58:31;3.40;;;2.63;;
21354;SDS011;10835;50.148;19.760;2022-12-07T13:04:27;4.38;;;1.77;;
21354;SDS011;10835;50.148;19.760;2022-12-07T13:07:10;7.35;;;3.50;;
21354;SDS011;10835;50.148;19.760;2022-12-07T13:09:45;3.60;;;2.30;;
21354;SDS011;10835;50.148;19.760;2022-12-07T13:12:13;3.10;;;2.20;;
21354;SDS011;10835;50.148;19.760;2022-12-07T13:17:55;5.15;;;3.25;;
21354;SDS011;10835;50.148;19.760;2022-12-07T13:20:46;3.78;;;2.22;;
21354;SDS011;10835;50.148;19.760;2022-12-07T13:23:26;3.90;;;2.75;;
21354;SDS011;10835;50.148;19.760;2022-12-07T13:26:08;4.43;;;2.85;;
21354;SDS011;10835;50.148;19.760;2022-12-07T13:28:45;4.05;;;2.38;;
21354;SDS011;10835;50.148;19.760;2022-12-07T13:31:28;3.42;;;2.15;;
21354;SDS011;10835;50.148;19.760;2022-12-07T13:34:00;3.55;;;2.70;;
21354;SDS011;10835;50.148;19.760;2022-12-07T13:36:31;4.93;;;2.78;;
21354;SDS011;10835;50.148;19.760;2022-12-07T13:39:17;1.85;;;1.63;;
21354;SDS011;10835;50.148;19.760;2022-12-07T13:41:51;4.75;;;2.72;;
21354;SDS011;10835;50.148;19.760;2022-12-07T13:44:21;2.42;;;2.10;;
21354;SDS011;10835;50.148;19.760;2022-12-07T13:46:53;3.92;;;2.60;;
21354;SDS011;10835;50.148;19.760;2022-12-07T13:49:27;2.28;;;1.95;;
21354;SDS011;10835;50.148;19.760;2022-12-07T13:52:06;2.67;;;1.65;;
21354;SDS011;10835;50.148;19.760;2022-12-07T13:54:43;2.85;;;1.92;;
21354;SDS011;10835;50.148;19.760;2022-12-07T13:57:14;3.50;;;2.08;;
21354;SDS011;10835;50.148;19.760;2022-12-07T13:59:42;4.07;;;2.05;;
21354;SDS011;10835;50.148;19.760;2022-12-07T14:02:17;2.40;;;1.90;;
21354;SDS011;10835;50.148;19.760;2022-12-07T14:04:49;3.17;;;1.88;;
21354;SDS011;10835;50.148;19.760;2022-12-07T14:07:20;2.83;;;2.13;;
21354;SDS011;10835;50.148;19.760;2022-12-07T14:09:54;2.35;;;1.63;;
21354;SDS011;10835;50.148;19.760;2022-12-07T14:12:24;3.65;;;2.10;;
21354;SDS011;10835;50.148;19.760;2022-12-07T14:14:54;3.10;;;2.58;;
21354;SDS011;10835;50.148;19.760;2022-12-07T14:17:24;4.25;;;2.60;;
21354;SDS011;10835;50.148;19.760;2022-12-07T14:19:53;2.97;;;1.80;;
21354;SDS011;10835;50.148;19.760;2022-12-07T14:22:27;3.95;;;2.72;;
21354;SDS011;10835;50.148;19.760;2022-12-07T14:25:00;4.30;;;2.58;;
21354;SDS011;10835;50.148;19.760;2022-12-07T14:27:46;4.47;;;2.65;;
21354;SDS011;10835;50.148;19.760;2022-12-07T14:30:16;4.25;;;2.35;;
21354;SDS011;10835;50.148;19.760;2022-12-07T14:32:46;3.78;;;2.88;;
21354;SDS011;10835;50.148;19.760;2022-12-07T14:35:18;4.63;;;2.35;;
21354;SDS011;10835;50.148;19.760;2022-12-07T14:37:47;5.18;;;3.33;;
21354;SDS011;10835;50.148;19.760;2022-12-07T14:40:17;6.35;;;3.92;;
21354;SDS011;10835;50.148;19.760;2022-12-07T14:42:48;4.10;;;2.95;;
21354;SDS011;10835;50.148;19.760;2022-12-07T14:45:19;5.70;;;3.10;;
21354;SDS011;10835;50.148;19.760;2022-12-07T14:47:48;3.75;;;2.17;;
21354;SDS011;10835;50.148;19.760;2022-12-07T14:50:37;4.68;;;3.25;;
21354;SDS011;10835;50.148;19.760;2022-12-07T14:53:28;5.70;;;2.35;;
21354;SDS011;10835;50.148;19.760;2022-12-07T14:55:59;5.72;;;3.25;;
21354;SDS011;10835;50.148;19.760;2022-12-07T14:58:28;5.40;;;2.58;;
21354;SDS011;10835;50.148;19.760;2022-12-07T15:00:56;6.75;;;3.67;;
21354;SDS011;10835;50.148;19.760;2022-12-07T15:03:24;6.38;;;3.13;;
21354;SDS011;10835;50.148;19.760;2022-12-07T15:05:52;6.18;;;3.20;;
21354;SDS011;10835;50.148;19.760;2022-12-07T15:08:20;4.68;;;3.05;;
21354;SDS011;10835;50.148;19.760;2022-12-07T15:10:49;6.13;;;3.08;;
21354;SDS011;10835;50.148;19.760;2022-12-07T15:13:17;4.07;;;2.90;;
21354;SDS011;10835;50.148;19.760;2022-12-07T15:16:04;5.78;;;3.30;;
21354;SDS011;10835;50.148;19.760;2022-12-07T15:18:35;6.18;;;4.05;;
21354;SDS011;10835;50.148;19.760;2022-12-07T15:21:03;6.30;;;3.80;;
21354;SDS011;10835;50.148;19.760;2022-12-07T15:23:31;6.90;;;3.30;;
21354;SDS011;10835;50.148;19.760;2022-12-07T15:25:59;5.55;;;3.10;;
21354;SDS011;10835;50.148;19.760;2022-12-07T15:28:27;6.80;;;4.15;;
21354;SDS011;10835;50.148;19.760;2022-12-07T15:30:55;5.80;;;3.17;;
21354;SDS011;10835;50.148;19.760;2022-12-07T15:33:43;6.53;;;3.88;;
21354;SDS011;10835;50.148;19.760;2022-12-07T15:36:15;11.13;;;5.15;;